CheckWX is a tool to help pilots better visualize weather data.  It is not intended as a substitute for an official pre-flight weather briefing.

17:06:46 UTC

EGJB TAF
Guernsey Airport
Saint Peter Port, Guernsey
TAF EGJB 071404Z 0715/0800 22013KT 9999 SCT015 BKN025 PROB40 TEMPO 0715/0800 BKN014 BECMG 0720/0722 22023KT TEMPO 0722/0800 21025G35KT

Dec-7@
15:00 UTC

Dec-7 @ 15:00 UTC

Dec-7@
20:00 UTC

Dec-7 @ 20:00 UTC

TAF EGJB 071404Z 0715/0800 22013KT 9999 SCT015 BKN025
Wind
  • 220° at 13 KTS
Cloud Levels
  • Scattered at 1,500' AGL
  • Broken at 2,500' AGL

Dec-7@
15:00 UTC

Dec-7 @ 15:00 UTC

Dec-8@
00:00 UTC

Dec-8 @ 00:00 UTC

PROB40 TEMPO 0715/0800 BKN014

Temporary - 40% Likelihood

Temporary - 40% Likelihood during this time.

Cloud Levels
  • Broken at 1,400' AGL

Dec-7@
20:00 UTC

Dec-7 @ 20:00 UTC

Dec-8@
00:00 UTC

Dec-8 @ 00:00 UTC

BECMG 0720/0722 22023KT

Becoming

Becoming Conditions expected by Sat, Dec 7, 2019 @ 22:00 UTC

Wind
  • 220° at 23 KTS
Cloud Levels
  • Scattered at 1,500' AGL
  • Broken at 2,500' AGL

Dec-7@
22:00 UTC

Dec-7 @ 22:00 UTC

Dec-8@
00:00 UTC

Dec-8 @ 00:00 UTC

TEMPO 0722/0800 21025G35KT

Temporary

Temporary Changes expected for less than half the time period

Wind
  • 210° at 25 KTS
  • {Gusting to 35 KTS